Time;durP1;ratioP1;P1;durP2;ratioP2;P2;SDS_P1;SDS_P2;PMS_P1;PMS_P2;Temp;Humidity;BMP_temperature;BMP_pressure;BME280_temperature;BME280_humidity;BME280_pressure;Samples;Min_cycle;Max_cycle;Signal;HPM_P1;HPM_P2
2024/02/17 00:00:08;;;;;;;25.00;13.85;;;;;;;;;;5012678;28;20080;-59
2024/02/17 00:02:33;;;;;;;23.70;13.25;;;;;;;;;;5011804;28;20022;-59
2024/02/17 00:04:59;;;;;;;25.53;14.13;;;;;;;;;;5012099;28;20072;-58
2024/02/17 00:07:24;;;;;;;25.60;14.80;;;;;;;;;;5013013;28;20029;-58
2024/02/17 00:09:49;;;;;;;25.63;14.87;;;;;;;;;;5015953;28;20080;-58
2024/02/17 00:12:14;;;;;;;26.83;14.53;;;;;;;;;;5007300;28;20025;-58
2024/02/17 00:14:39;;;;;;;27.50;14.10;;;;;;;;;;5010146;28;20540;-60
2024/02/17 00:17:05;;;;;;;29.73;14.68;;;;;;;;;;5011335;28;20044;-60
2024/02/17 00:19:30;;;;;;;26.60;14.70;;;;;;;;;;5010328;28;20433;-59
2024/02/17 00:21:56;;;;;;;28.73;14.93;;;;;;;;;;5011179;28;20018;-59
2024/02/17 00:24:21;;;;;;;26.73;14.95;;;;;;;;;;5006295;28;20444;-59
2024/02/17 00:26:46;;;;;;;32.35;18.10;;;;;;;;;;5011853;28;20567;-60
2024/02/17 00:29:12;;;;;;;30.63;17.23;;;;;;;;;;5012233;28;20022;-60
2024/02/17 00:31:37;;;;;;;41.43;21.27;;;;;;;;;;5012692;28;20032;-59
2024/02/17 00:34:03;;;;;;;43.78;23.50;;;;;;;;;;5012324;28;20467;-61
2024/02/17 00:36:28;;;;;;;40.60;21.45;;;;;;;;;;5012430;28;20025;-59
2024/02/17 00:38:53;;;;;;;44.93;21.47;;;;;;;;;;5012138;28;20097;-60
2024/02/17 00:41:18;;;;;;;43.00;21.63;;;;;;;;;;5009948;28;20060;-59
2024/02/17 00:43:43;;;;;;;42.47;21.42;;;;;;;;;;5011431;28;20022;-59
2024/02/17 00:46:09;;;;;;;50.78;23.27;;;;;;;;;;5012400;28;20082;-61
2024/02/17 00:48:34;;;;;;;47.67;23.08;;;;;;;;;;5013099;28;20467;-60
2024/02/17 00:50:59;;;;;;;45.13;22.80;;;;;;;;;;5000922;28;20030;-59
2024/02/17 00:53:24;;;;;;;60.60;25.55;;;;;;;;;;5008589;28;20375;-60
2024/02/17 00:55:50;;;;;;;55.43;24.87;;;;;;;;;;5011423;28;20024;-60
2024/02/17 00:58:15;;;;;;;44.43;21.00;;;;;;;;;;5011543;28;20028;-60
2024/02/17 01:00:40;;;;;;;64.10;25.92;;;;;;;;;;5011621;28;20413;-60
2024/02/17 01:03:05;;;;;;;66.53;26.65;;;;;;;;;;5011149;28;20019;-60
2024/02/17 01:05:30;;;;;;;68.13;28.03;;;;;;;;;;5011263;28;20125;-61
2024/02/17 01:07:56;;;;;;;45.47;21.43;;;;;;;;;;5011580;28;20883;-61
2024/02/17 01:10:21;;;;;;;51.38;23.23;;;;;;;;;;5011733;28;20543;-59
2024/02/17 01:12:46;;;;;;;41.80;20.90;;;;;;;;;;5012304;28;20026;-60
2024/02/17 01:15:11;;;;;;;47.60;22.57;;;;;;;;;;5011742;28;20556;-60
2024/02/17 01:17:36;;;;;;;44.17;21.03;;;;;;;;;;5008296;28;20033;-61
2024/02/17 01:20:02;;;;;;;52.10;22.90;;;;;;;;;;5008164;28;20030;-60
2024/02/17 01:22:27;;;;;;;46.53;21.90;;;;;;;;;;5009155;28;20637;-60
2024/02/17 01:24:52;;;;;;;46.53;21.27;;;;;;;;;;5011829;28;20022;-60
2024/02/17 01:27:17;;;;;;;44.78;20.27;;;;;;;;;;5011310;28;20105;-59
2024/02/17 01:29:42;;;;;;;40.33;20.60;;;;;;;;;;5011380;28;20018;-59
2024/02/17 01:32:09;;;;;;;50.65;22.95;;;;;;;;;;5011502;28;20052;-59
2024/02/17 01:34:34;;;;;;;40.30;19.73;;;;;;;;;;5011258;28;20018;-60
2024/02/17 01:36:59;;;;;;;43.97;20.83;;;;;;;;;;5007448;28;20375;-60
2024/02/17 01:39:25;;;;;;;50.63;21.10;;;;;;;;;;5011195;28;20079;-59
2024/02/17 01:41:50;;;;;;;43.33;21.05;;;;;;;;;;5011484;28;20097;-59
2024/02/17 01:44:15;;;;;;;48.33;22.17;;;;;;;;;;5013280;28;20429;-60
2024/02/17 01:46:41;;;;;;;44.80;21.45;;;;;;;;;;5011345;28;20533;-60
2024/02/17 01:49:06;;;;;;;43.60;19.95;;;;;;;;;;5012915;28;20029;-61
2024/02/17 01:51:31;;;;;;;42.43;19.60;;;;;;;;;;5014272;28;20699;-60
2024/02/17 01:53:58;;;;;;;36.87;18.33;;;;;;;;;;5016205;28;20052;-60
2024/02/17 01:56:24;;;;;;;34.42;17.13;;;;;;;;;;5014780;28;20453;-60
2024/02/17 01:58:49;;;;;;;35.85;17.20;;;;;;;;;;5015339;28;20040;-60
2024/02/17 02:01:14;;;;;;;38.87;18.77;;;;;;;;;;5014251;28;20026;-60
2024/02/17 02:03:40;;;;;;;40.90;19.37;;;;;;;;;;5013299;28;20073;-59
2024/02/17 02:06:05;;;;;;;36.93;18.30;;;;;;;;;;5014922;28;20017;-60
2024/02/17 02:08:30;;;;;;;42.13;20.02;;;;;;;;;;5020376;28;20068;-60
2024/02/17 02:10:55;;;;;;;45.10;20.77;;;;;;;;;;5015097;28;20045;-60
2024/02/17 02:13:21;;;;;;;43.17;20.23;;;;;;;;;;5015673;28;20033;-60
2024/02/17 02:15:46;;;;;;;41.65;18.70;;;;;;;;;;5019305;28;20456;-59
2024/02/17 02:18:11;;;;;;;39.43;19.03;;;;;;;;;;5025550;28;20049;-59
2024/02/17 02:20:40;;;;;;;40.83;18.83;;;;;;;;;;5029747;28;20034;-60
2024/02/17 02:23:05;;;;;;;25.08;12.45;;;;;;;;;;5017151;28;20090;-60
2024/02/17 02:25:31;;;;;;;32.83;14.23;;;;;;;;;;5021899;28;20045;-60
2024/02/17 02:27:57;;;;;;;26.45;12.70;;;;;;;;;;5009576;28;20040;-60
2024/02/17 02:30:22;;;;;;;34.83;16.20;;;;;;;;;;5006197;28;20487;-61
2024/02/17 02:32:47;;;;;;;21.52;10.32;;;;;;;;;;5019670;28;20489;-60
2024/02/17 02:35:13;;;;;;;20.65;10.65;;;;;;;;;;5010196;28;20105;-61
2024/02/17 02:37:38;;;;;;;14.67;8.57;;;;;;;;;;5011047;28;20018;-60
2024/02/17 02:40:03;;;;;;;17.80;8.97;;;;;;;;;;5011014;28;20448;-60
2024/02/17 02:42:28;;;;;;;17.08;9.23;;;;;;;;;;5002517;28;20042;-60
2024/02/17 02:44:54;;;;;;;17.70;8.67;;;;;;;;;;5010797;28;20397;-61
2024/02/17 02:47:19;;;;;;;15.53;8.33;;;;;;;;;;5011135;28;20018;-61
2024/02/17 02:49:44;;;;;;;16.93;8.60;;;;;;;;;;5002806;28;20483;-61
2024/02/17 02:52:09;;;;;;;14.80;8.13;;;;;;;;;;5022680;28;20032;-60
2024/02/17 02:54:34;;;;;;;17.00;8.63;;;;;;;;;;5013823;28;20437;-60
2024/02/17 02:57:00;;;;;;;17.38;9.18;;;;;;;;;;5012360;28;20045;-59
2024/02/17 02:59:25;;;;;;;16.42;7.88;;;;;;;;;;4999676;28;20106;-59
2024/02/17 03:01:50;;;;;;;15.57;8.43;;;;;;;;;;5011576;28;20033;-61
2024/02/17 03:04:15;;;;;;;23.20;9.83;;;;;;;;;;5013890;28;20374;-60
2024/02/17 03:06:40;;;;;;;18.08;9.00;;;;;;;;;;5011028;28;20040;-59
2024/02/17 03:09:06;;;;;;;15.80;8.73;;;;;;;;;;5008902;28;20041;-58
2024/02/17 03:11:32;;;;;;;17.77;9.07;;;;;;;;;;5020509;28;20018;-60
2024/02/17 03:13:57;;;;;;;17.67;9.35;;;;;;;;;;5004777;28;20022;-60
2024/02/17 03:16:23;;;;;;;15.07;8.57;;;;;;;;;;5013494;28;20021;-60
2024/02/17 03:18:49;;;;;;;19.98;9.25;;;;;;;;;;5013409;28;20026;-59
2024/02/17 03:21:14;;;;;;;21.73;10.43;;;;;;;;;;5012842;28;20025;-59
2024/02/17 03:23:39;;;;;;;19.15;10.18;;;;;;;;;;5012790;28;21232;-60
2024/02/17 03:26:05;;;;;;;23.80;10.87;;;;;;;;;;5015266;28;20057;-60
2024/02/17 03:28:30;;;;;;;24.08;11.30;;;;;;;;;;5006376;28;20487;-60
2024/02/17 03:30:57;;;;;;;23.48;10.95;;;;;;;;;;5011189;28;20024;-60
2024/02/17 03:33:22;;;;;;;23.52;11.32;;;;;;;;;;5012262;28;20533;-60
2024/02/17 03:35:48;;;;;;;24.50;12.18;;;;;;;;;;5013704;28;20033;-60
2024/02/17 03:38:13;;;;;;;23.37;11.77;;;;;;;;;;5012632;28;20386;-61
2024/02/17 03:40:38;;;;;;;22.57;11.83;;;;;;;;;;5014147;28;20018;-61
2024/02/17 03:43:03;;;;;;;23.90;12.55;;;;;;;;;;5012461;28;20097;-61
2024/02/17 03:45:28;;;;;;;28.03;12.90;;;;;;;;;;5012868;28;20033;-61
2024/02/17 03:47:53;;;;;;;27.40;11.85;;;;;;;;;;5012537;28;20034;-60
2024/02/17 03:50:18;;;;;;;24.65;12.02;;;;;;;;;;5012661;28;20034;-60
2024/02/17 03:52:44;;;;;;;24.23;11.87;;;;;;;;;;5012501;28;20714;-60
2024/02/17 03:55:09;;;;;;;25.02;11.52;;;;;;;;;;5011581;28;20025;-61
2024/02/17 03:57:34;;;;;;;24.03;10.73;;;;;;;;;;5005683;28;20458;-59
2024/02/17 03:59:59;;;;;;;27.13;11.40;;;;;;;;;;5011746;28;20022;-59
2024/02/17 04:02:24;;;;;;;25.43;10.70;;;;;;;;;;5012650;28;20025;-60
2024/02/17 04:04:49;;;;;;;25.13;11.43;;;;;;;;;;5012595;28;20026;-61
2024/02/17 04:07:15;;;;;;;24.93;11.80;;;;;;;;;;5014805;28;20022;-60
2024/02/17 04:09:40;;;;;;;26.30;10.88;;;;;;;;;;5017427;28;20033;-60
2024/02/17 04:12:05;;;;;;;25.97;11.50;;;;;;;;;;5022227;28;20030;-61
2024/02/17 04:14:30;;;;;;;23.63;11.13;;;;;;;;;;5010843;28;20010;-59
2024/02/17 04:16:55;;;;;;;24.67;11.60;;;;;;;;;;5015939;28;20500;-61
2024/02/17 04:19:20;;;;;;;25.65;11.25;;;;;;;;;;5015128;28;20033;-59
2024/02/17 04:21:46;;;;;;;24.83;11.63;;;;;;;;;;5012159;28;20079;-59
2024/02/17 04:24:12;;;;;;;25.95;11.10;;;;;;;;;;5012230;28;20033;-61
2024/02/17 04:26:37;;;;;;;23.90;11.77;;;;;;;;;;5011780;28;20045;-60
2024/02/17 04:29:02;;;;;;;27.73;12.27;;;;;;;;;;5013700;28;20426;-60
2024/02/17 04:31:27;;;;;;;24.10;10.80;;;;;;;;;;5011021;28;20490;-59
2024/02/17 04:33:54;;;;;;;27.10;12.57;;;;;;;;;;5012422;28;20092;-61
2024/02/17 04:36:19;;;;;;;30.08;12.38;;;;;;;;;;5010497;28;20064;-60
2024/02/17 04:38:44;;;;;;;31.20;13.10;;;;;;;;;;5010306;28;20053;-60
2024/02/17 04:41:09;;;;;;;30.48;13.13;;;;;;;;;;5011433;28;20041;-58
2024/02/17 04:43:34;;;;;;;29.77;13.27;;;;;;;;;;5012327;28;20014;-59
2024/02/17 04:45:59;;;;;;;27.63;12.57;;;;;;;;;;5019376;28;20037;-60
2024/02/17 04:48:25;;;;;;;28.97;13.63;;;;;;;;;;5006671;28;20026;-60
2024/02/17 04:50:50;;;;;;;29.23;12.73;;;;;;;;;;5011648;28;20029;-60
2024/02/17 04:53:15;;;;;;;32.47;13.77;;;;;;;;;;5011850;28;20817;-59
2024/02/17 04:55:40;;;;;;;29.53;13.93;;;;;;;;;;5020587;28;20470;-60
2024/02/17 04:58:06;;;;;;;30.53;13.77;;;;;;;;;;5012052;28;20190;-61
2024/02/17 05:00:32;;;;;;;38.55;15.75;;;;;;;;;;5010804;28;20018;-60
2024/02/17 05:02:57;;;;;;;27.43;13.73;;;;;;;;;;5003174;28;20505;-60
2024/02/17 05:05:22;;;;;;;32.23;14.03;;;;;;;;;;5010753;28;20487;-60
2024/02/17 05:07:48;;;;;;;25.30;12.77;;;;;;;;;;5011751;28;20041;-60
2024/02/17 05:10:13;;;;;;;26.10;12.43;;;;;;;;;;5012201;28;20437;-60
2024/02/17 05:12:38;;;;;;;30.90;13.07;;;;;;;;;;5011307;28;20014;-59
2024/02/17 05:15:03;;;;;;;32.03;12.85;;;;;;;;;;5011632;28;20040;-59
2024/02/17 05:17:28;;;;;;;25.23;12.10;;;;;;;;;;5013749;28;20029;-59
2024/02/17 05:19:55;;;;;;;26.50;12.70;;;;;;;;;;5010734;28;20030;-60
2024/02/17 05:22:20;;;;;;;30.05;13.40;;;;;;;;;;5011264;28;20101;-59
2024/02/17 05:24:45;;;;;;;27.60;12.23;;;;;;;;;;5011141;28;20049;-60
2024/02/17 05:27:10;;;;;;;28.70;13.13;;;;;;;;;;5010804;28;20034;-59
2024/02/17 05:29:37;;;;;;;26.45;12.48;;;;;;;;;;5011425;28;20447;-60
2024/02/17 05:32:02;;;;;;;25.13;11.48;;;;;;;;;;5010949;28;20022;-60
2024/02/17 05:34:27;;;;;;;32.83;12.55;;;;;;;;;;5016036;28;20030;-60
2024/02/17 05:36:53;;;;;;;22.30;11.20;;;;;;;;;;5008461;28;20025;-58
2024/02/17 05:39:18;;;;;;;28.35;11.60;;;;;;;;;;5011780;28;20513;-60
2024/02/17 05:41:43;;;;;;;23.33;10.80;;;;;;;;;;5011426;28;20105;-59
2024/02/17 05:44:08;;;;;;;26.27;11.73;;;;;;;;;;5011631;28;20541;-59
2024/02/17 05:46:33;;;;;;;24.75;11.45;;;;;;;;;;5011505;28;20037;-60
2024/02/17 05:48:58;;;;;;;24.50;10.95;;;;;;;;;;5011325;28;20018;-59
2024/02/17 05:51:24;;;;;;;25.73;11.15;;;;;;;;;;5010852;28;20030;-60
2024/02/17 05:53:49;;;;;;;24.23;10.60;;;;;;;;;;5009495;28;20018;-59
2024/02/17 05:56:14;;;;;;;23.83;10.67;;;;;;;;;;5010774;28;20702;-58
2024/02/17 05:58:40;;;;;;;21.13;9.55;;;;;;;;;;5010714;28;20101;-58
2024/02/17 06:01:07;;;;;;;20.80;9.63;;;;;;;;;;5010889;28;20064;-59
2024/02/17 06:03:32;;;;;;;18.85;9.23;;;;;;;;;;5009203;28;20463;-60
2024/02/17 06:05:57;;;;;;;22.03;9.97;;;;;;;;;;5011051;28;20116;-60
2024/02/17 06:08:23;;;;;;;20.53;10.13;;;;;;;;;;4999405;28;20098;-59
2024/02/17 06:10:48;;;;;;;22.95;10.40;;;;;;;;;;5006183;28;20056;-58
2024/02/17 06:13:13;;;;;;;23.15;10.07;;;;;;;;;;5011213;28;20482;-58
2024/02/17 06:15:42;;;;;;;23.83;11.27;;;;;;;;;;5010849;28;20092;-60
2024/02/17 06:21:10;;;;;;;;;;;;;;;;;;5011291;28;20072;-59
2024/02/17 06:23:36;;;;;;;26.02;9.70;;;;;;;;;;5011246;28;19915;-60
2024/02/17 06:26:01;;;;;;;25.27;10.30;;;;;;;;;;5012994;28;20021;-59
2024/02/17 06:28:26;;;;;;;24.20;10.60;;;;;;;;;;5012432;28;21013;-59
2024/02/17 06:30:52;;;;;;;23.25;10.32;;;;;;;;;;5008684;28;20025;-60
2024/02/17 06:33:17;;;;;;;23.05;10.25;;;;;;;;;;5012554;28;20026;-60
2024/02/17 06:35:42;;;;;;;22.80;10.10;;;;;;;;;;5013721;28;20056;-60
2024/02/17 06:38:07;;;;;;;21.67;9.83;;;;;;;;;;5014328;28;20056;-59
2024/02/17 06:40:32;;;;;;;23.38;9.88;;;;;;;;;;5009460;28;20072;-59
2024/02/17 06:42:57;;;;;;;21.52;10.63;;;;;;;;;;5012170;28;20034;-59
2024/02/17 06:45:23;;;;;;;22.70;10.40;;;;;;;;;;5013533;28;20044;-60
2024/02/17 06:47:48;;;;;;;22.40;9.63;;;;;;;;;;5013979;28;20032;-58
2024/02/17 06:50:14;;;;;;;23.40;9.85;;;;;;;;;;5015231;28;20026;-58
2024/02/17 06:52:39;;;;;;;26.15;10.82;;;;;;;;;;5012684;28;20394;-59
2024/02/17 06:55:04;;;;;;;25.57;10.93;;;;;;;;;;5012441;28;20398;-58
2024/02/17 06:57:30;;;;;;;26.10;10.45;;;;;;;;;;5011321;28;21008;-60
2024/02/17 06:59:55;;;;;;;25.13;10.43;;;;;;;;;;5012163;28;20033;-60
2024/02/17 07:02:23;;;;;;;28.83;10.43;;;;;;;;;;5004866;28;20705;-58
2024/02/17 07:04:48;;;;;;;24.33;11.50;;;;;;;;;;5007451;28;20030;-58
2024/02/17 07:07:13;;;;;;;25.90;11.40;;;;;;;;;;5008771;28;20501;-60
2024/02/17 07:09:39;;;;;;;26.45;10.90;;;;;;;;;;5012420;28;20797;-60
2024/02/17 07:12:04;;;;;;;24.33;10.93;;;;;;;;;;5012724;28;20485;-60
2024/02/17 07:14:29;;;;;;;24.02;10.43;;;;;;;;;;5011416;28;20490;-58
2024/02/17 07:16:56;;;;;;;20.63;9.63;;;;;;;;;;5012464;28;20482;-59
2024/02/17 07:19:21;;;;;;;22.25;10.00;;;;;;;;;;5012738;28;20024;-60
2024/02/17 07:21:46;;;;;;;22.20;9.47;;;;;;;;;;5012446;28;20101;-59
2024/02/17 07:24:12;;;;;;;23.88;10.25;;;;;;;;;;5006077;28;20028;-58
2024/02/17 07:26:43;;;;;;;24.73;9.77;;;;;;;;;;5013496;28;20054;-60
2024/02/17 07:29:09;;;;;;;19.77;9.63;;;;;;;;;;5007560;28;20482;-58
2024/02/17 07:31:40;;;;;;;22.42;9.50;;;;;;;;;;5017849;28;20117;-59
2024/02/17 07:34:05;;;;;;;23.38;10.00;;;;;;;;;;5021123;28;20035;-60
2024/02/17 07:36:31;;;;;;;19.17;9.00;;;;;;;;;;5021226;28;20049;-59
2024/02/17 07:38:56;;;;;;;23.67;10.87;;;;;;;;;;5024301;28;20141;-59
2024/02/17 07:41:21;;;;;;;23.20;10.57;;;;;;;;;;5024965;28;20086;-59
2024/02/17 07:43:46;;;;;;;22.47;10.37;;;;;;;;;;5031619;28;20037;-60
2024/02/17 07:46:11;;;;;;;20.43;9.77;;;;;;;;;;5016217;28;20426;-59
2024/02/17 07:48:37;;;;;;;19.10;9.50;;;;;;;;;;5021117;28;20048;-58
2024/02/17 07:51:02;;;;;;;20.43;9.87;;;;;;;;;;5020412;28;20480;-59
2024/02/17 07:53:27;;;;;;;21.67;9.98;;;;;;;;;;5022332;28;20378;-59
2024/02/17 07:55:52;;;;;;;19.17;9.85;;;;;;;;;;5017363;28;20022;-60
2024/02/17 07:58:17;;;;;;;16.00;8.82;;;;;;;;;;5017997;28;20030;-59
2024/02/17 08:00:43;;;;;;;19.97;9.50;;;;;;;;;;5012606;28;20026;-59
2024/02/17 08:03:08;;;;;;;17.23;9.13;;;;;;;;;;5020232;28;20131;-59
2024/02/17 08:05:33;;;;;;;17.17;8.63;;;;;;;;;;5017070;28;20557;-59
2024/02/17 08:07:59;;;;;;;15.43;8.00;;;;;;;;;;5013294;28;20088;-60
2024/02/17 08:10:24;;;;;;;17.10;8.53;;;;;;;;;;5013147;28;20028;-60
2024/02/17 08:12:49;;;;;;;15.07;7.60;;;;;;;;;;5012753;28;20020;-60
2024/02/17 08:15:14;;;;;;;15.33;7.03;;;;;;;;;;5013020;28;20474;-59
2024/02/17 08:17:40;;;;;;;12.50;6.70;;;;;;;;;;5011250;28;20085;-59
2024/02/17 08:20:05;;;;;;;12.23;6.43;;;;;;;;;;5012843;28;20037;-58
2024/02/17 08:22:30;;;;;;;14.57;7.28;;;;;;;;;;5013298;28;20037;-59
2024/02/17 08:24:56;;;;;;;11.50;5.88;;;;;;;;;;5006004;28;20109;-58
2024/02/17 08:27:21;;;;;;;15.07;6.83;;;;;;;;;;5014318;28;20033;-59
2024/02/17 08:29:46;;;;;;;15.10;7.60;;;;;;;;;;5014947;28;20100;-59
2024/02/17 08:32:11;;;;;;;16.75;7.68;;;;;;;;;;5008881;28;20053;-58
2024/02/17 08:34:36;;;;;;;14.10;7.20;;;;;;;;;;5013331;28;20057;-59
2024/02/17 08:37:01;;;;;;;12.30;6.53;;;;;;;;;;5015039;28;20109;-58
2024/02/17 08:39:27;;;;;;;14.73;7.10;;;;;;;;;;5014530;28;20100;-60
2024/02/17 08:41:55;;;;;;;11.95;6.28;;;;;;;;;;4999666;28;20084;-59
2024/02/17 08:44:20;;;;;;;14.43;6.75;;;;;;;;;;5013858;28;20026;-58
2024/02/17 08:46:45;;;;;;;12.50;6.73;;;;;;;;;;5003550;28;20045;-60
2024/02/17 08:49:11;;;;;;;11.95;6.00;;;;;;;;;;5002029;28;20025;-59
2024/02/17 08:51:36;;;;;;;10.03;5.07;;;;;;;;;;5012220;28;20418;-59
2024/02/17 08:54:01;;;;;;;9.68;4.70;;;;;;;;;;5012710;28;20033;-59
2024/02/17 08:56:26;;;;;;;9.40;4.60;;;;;;;;;;5010922;28;20502;-58
2024/02/17 08:58:52;;;;;;;9.73;4.25;;;;;;;;;;5015333;28;20033;-59
2024/02/17 09:01:17;;;;;;;9.45;4.47;;;;;;;;;;4999462;28;20088;-59
2024/02/17 09:03:43;;;;;;;11.30;4.90;;;;;;;;;;5005519;28;20021;-57
2024/02/17 09:06:08;;;;;;;10.10;4.45;;;;;;;;;;5010413;28;20029;-59
2024/02/17 09:08:33;;;;;;;9.80;4.00;;;;;;;;;;5011667;28;20026;-60
2024/02/17 09:10:58;;;;;;;8.60;3.70;;;;;;;;;;5012178;28;20502;-59
2024/02/17 09:13:24;;;;;;;10.27;3.92;;;;;;;;;;5014387;28;20025;-59
2024/02/17 09:15:49;;;;;;;7.60;3.78;;;;;;;;;;5012175;28;20064;-58
2024/02/17 09:18:14;;;;;;;7.93;3.90;;;;;;;;;;5009518;28;20482;-58
2024/02/17 09:20:39;;;;;;;11.52;4.45;;;;;;;;;;5003963;28;20019;-57
2024/02/17 09:23:05;;;;;;;8.30;3.50;;;;;;;;;;5008109;28;20026;-60
2024/02/17 09:25:30;;;;;;;9.32;3.83;;;;;;;;;;5009433;28;20040;-60
2024/02/17 09:27:56;;;;;;;7.10;3.92;;;;;;;;;;5009972;28;20112;-60
2024/02/17 09:30:21;;;;;;;7.37;3.50;;;;;;;;;;5011159;28;20041;-58
2024/02/17 09:32:46;;;;;;;9.60;3.60;;;;;;;;;;5009708;28;20438;-58
2024/02/17 09:35:11;;;;;;;7.80;3.92;;;;;;;;;;4999421;28;20433;-60
2024/02/17 09:37:38;;;;;;;8.53;3.90;;;;;;;;;;5005929;28;20022;-58
2024/02/17 09:40:06;;;;;;;9.05;3.78;;;;;;;;;;5002222;28;20612;-59
2024/02/17 09:42:31;;;;;;;9.38;4.00;;;;;;;;;;5011488;28;20029;-58
2024/02/17 09:44:59;;;;;;;8.25;3.92;;;;;;;;;;5007609;28;20026;-59
2024/02/17 09:47:25;;;;;;;8.35;3.90;;;;;;;;;;5009885;28;20504;-60
2024/02/17 09:49:50;;;;;;;7.55;3.83;;;;;;;;;;5005075;28;20018;-59
2024/02/17 09:52:17;;;;;;;9.13;3.80;;;;;;;;;;5008470;28;20754;-59
2024/02/17 09:54:43;;;;;;;7.70;3.65;;;;;;;;;;5011008;28;20022;-57
2024/02/17 09:57:08;;;;;;;7.95;3.60;;;;;;;;;;5006611;28;20073;-59
2024/02/17 09:59:35;;;;;;;6.43;3.03;;;;;;;;;;5009804;28;20568;-58
2024/02/17 10:02:02;;;;;;;6.85;3.47;;;;;;;;;;5014067;28;20025;-60
2024/02/17 10:04:27;;;;;;;6.75;3.53;;;;;;;;;;5008006;28;20081;-59
2024/02/17 10:06:58;;;;;;;9.57;3.60;;;;;;;;;;5007768;28;20038;-59
2024/02/17 10:09:23;;;;;;;7.25;3.20;;;;;;;;;;5023532;28;20092;-59
2024/02/17 10:11:48;;;;;;;9.23;3.40;;;;;;;;;;5014572;28;20088;-58
2024/02/17 10:14:15;;;;;;;7.50;2.92;;;;;;;;;;5009426;28;20042;-59
2024/02/17 10:16:40;;;;;;;7.60;3.58;;;;;;;;;;5010793;28;20486;-59
2024/02/17 10:19:05;;;;;;;6.38;3.25;;;;;;;;;;5013663;28;20103;-59
2024/02/17 10:21:30;;;;;;;6.57;3.40;;;;;;;;;;5013600;28;20367;-59
2024/02/17 10:23:56;;;;;;;6.47;2.80;;;;;;;;;;5006272;28;20052;-60
2024/02/17 10:26:21;;;;;;;8.77;3.42;;;;;;;;;;5006164;28;20026;-57
2024/02/17 10:28:56;;;;;;;7.72;3.25;;;;;;;;;;5010509;28;20022;-60
2024/02/17 10:31:22;;;;;;;7.53;3.13;;;;;;;;;;4998016;28;20022;-58
2024/02/17 10:33:48;;;;;;;8.65;3.60;;;;;;;;;;5010202;28;20041;-58
2024/02/17 10:36:13;;;;;;;6.45;3.28;;;;;;;;;;5010456;28;20100;-57
2024/02/17 10:38:40;;;;;;;7.10;3.57;;;;;;;;;;5007640;28;20037;-58
2024/02/17 10:41:06;;;;;;;10.77;4.50;;;;;;;;;;5013240;28;20467;-58
2024/02/17 10:43:32;;;;;;;8.05;3.28;;;;;;;;;;5020388;28;20484;-58
2024/02/17 10:45:59;;;;;;;6.03;3.38;;;;;;;;;;5017847;28;20033;-58
2024/02/17 10:48:24;;;;;;;6.43;3.33;;;;;;;;;;5012966;28;20026;-58
2024/02/17 10:50:50;;;;;;;7.18;2.97;;;;;;;;;;5008856;28;20026;-58
2024/02/17 10:53:27;;;;;;;8.00;3.00;;;;;;;;;;5010454;28;20029;-58
2024/02/17 10:55:53;;;;;;;7.80;3.50;;;;;;;;;;5009705;28;20025;-58
2024/02/17 10:58:20;;;;;;;7.03;2.90;;;;;;;;;;5009341;28;20095;-59
2024/02/17 11:00:45;;;;;;;;;;;;;;;;;;5013986;28;20044;-59
2024/02/17 11:03:12;;;;;;;6.78;2.53;;;;;;;;;;5011999;28;19992;-59
2024/02/17 11:05:40;;;;;;;6.45;2.50;;;;;;;;;;5012665;28;20018;-57
2024/02/17 11:08:05;;;;;;;5.15;2.30;;;;;;;;;;5012588;28;20033;-58
2024/02/17 11:10:31;;;;;;;5.32;2.47;;;;;;;;;;5011930;28;20022;-60
2024/02/17 11:12:56;;;;;;;5.85;2.47;;;;;;;;;;5011526;28;20022;-59
2024/02/17 11:15:22;;;;;;;6.82;2.60;;;;;;;;;;5003885;28;20026;-59
2024/02/17 11:17:51;;;;;;;6.78;2.47;;;;;;;;;;5013248;28;20033;-59
2024/02/17 11:20:16;;;;;;;5.32;2.65;;;;;;;;;;5012685;28;20092;-58
2024/02/17 11:22:45;;;;;;;5.65;2.72;;;;;;;;;;5008942;28;20092;-56
2024/02/17 11:25:11;;;;;;;7.28;2.72;;;;;;;;;;5000879;28;20045;-59
2024/02/17 11:27:37;;;;;;;7.03;2.72;;;;;;;;;;5012468;28;20038;-60
2024/02/17 11:30:04;;;;;;;6.15;3.03;;;;;;;;;;5013307;28;20026;-58
2024/02/17 11:32:30;;;;;;;6.25;2.67;;;;;;;;;;5009775;28;20046;-58
2024/02/17 11:34:56;;;;;;;7.40;2.20;;;;;;;;;;5011715;28;20446;-58
2024/02/17 11:37:21;;;;;;;6.55;2.35;;;;;;;;;;5007975;28;20087;-58
2024/02/17 11:39:47;;;;;;;5.93;2.38;;;;;;;;;;5010144;28;20128;-60
2024/02/17 11:42:13;;;;;;;5.93;2.30;;;;;;;;;;5003670;28;20052;-59
2024/02/17 11:44:38;;;;;;;6.47;2.40;;;;;;;;;;5010781;28;20075;-59
2024/02/17 11:47:04;;;;;;;8.27;2.90;;;;;;;;;;5010203;28;20072;-59
2024/02/17 11:49:29;;;;;;;5.70;2.37;;;;;;;;;;5008989;28;20567;-58
2024/02/17 11:51:55;;;;;;;6.10;2.20;;;;;;;;;;5008669;28;20473;-60
2024/02/17 11:54:20;;;;;;;6.95;2.72;;;;;;;;;;5009354;28;20813;-59
2024/02/17 11:56:45;;;;;;;6.05;2.60;;;;;;;;;;5009930;28;20021;-57
2024/02/17 11:59:11;;;;;;;5.87;2.40;;;;;;;;;;5010827;28;20472;-58
2024/02/17 12:01:36;;;;;;;6.60;2.50;;;;;;;;;;5011469;28;20021;-60
2024/02/17 12:04:03;;;;;;;6.18;2.35;;;;;;;;;;5010975;28;20088;-59
2024/02/17 12:06:28;;;;;;;5.30;2.50;;;;;;;;;;5003205;28;20027;-58
2024/02/17 12:08:53;;;;;;;7.27;2.70;;;;;;;;;;5010108;28;20041;-59
2024/02/17 12:11:19;;;;;;;5.87;2.70;;;;;;;;;;5007558;28;20033;-59
2024/02/17 12:13:44;;;;;;;5.78;2.20;;;;;;;;;;5006677;28;20029;-58
2024/02/17 12:16:09;;;;;;;7.63;2.60;;;;;;;;;;5009192;28;20026;-58
2024/02/17 12:18:38;;;;;;;5.97;2.20;;;;;;;;;;5010167;28;20516;-59
2024/02/17 12:21:07;;;;;;;6.85;2.53;;;;;;;;;;5011795;28;20084;-58
2024/02/17 12:23:37;;;;;;;5.88;2.38;;;;;;;;;;5010246;28;20018;-58
2024/02/17 12:26:03;;;;;;;6.53;2.17;;;;;;;;;;5010778;28;20040;-57
2024/02/17 12:28:29;;;;;;;7.78;2.20;;;;;;;;;;5011921;28;20040;-59
2024/02/17 12:30:54;;;;;;;8.10;2.30;;;;;;;;;;5002450;28;20027;-59
2024/02/17 12:33:21;;;;;;;6.67;2.40;;;;;;;;;;5015576;28;20064;-59
2024/02/17 12:35:49;;;;;;;5.32;2.40;;;;;;;;;;5013641;28;20049;-59
2024/02/17 12:38:15;;;;;;;6.28;2.47;;;;;;;;;;5010365;28;20026;-58
2024/02/17 12:40:42;;;;;;;5.32;2.40;;;;;;;;;;5011325;28;20024;-58
2024/02/17 12:43:07;;;;;;;6.82;2.53;;;;;;;;;;5010367;28;20021;-59
2024/02/17 12:45:32;;;;;;;7.87;2.40;;;;;;;;;;5011676;28;20532;-58
2024/02/17 12:47:59;;;;;;;5.00;2.57;;;;;;;;;;5014917;28;20053;-58
2024/02/17 12:50:24;;;;;;;6.20;2.50;;;;;;;;;;5009686;28;20382;-58
2024/02/17 12:52:49;;;;;;;5.40;2.53;;;;;;;;;;5014023;28;20021;-58
2024/02/17 12:55:15;;;;;;;6.97;2.70;;;;;;;;;;5008551;28;20014;-58
2024/02/17 12:57:41;;;;;;;6.30;2.60;;;;;;;;;;5014659;28;20501;-58
2024/02/17 13:00:06;;;;;;;7.13;3.20;;;;;;;;;;5028173;28;20063;-58
2024/02/17 13:02:33;;;;;;;5.70;2.90;;;;;;;;;;5012996;28;20387;-58
2024/02/17 13:04:58;;;;;;;5.88;2.95;;;;;;;;;;5011489;28;20033;-59
2024/02/17 13:07:25;;;;;;;7.00;3.03;;;;;;;;;;5009013;28;20032;-60
2024/02/17 13:09:50;;;;;;;7.10;2.90;;;;;;;;;;5009687;28;20017;-57
2024/02/17 13:12:15;;;;;;;6.67;2.83;;;;;;;;;;5012501;28;20040;-60
2024/02/17 13:14:40;;;;;;;6.30;2.80;;;;;;;;;;5013476;28;20097;-59
2024/02/17 13:17:06;;;;;;;6.83;3.00;;;;;;;;;;5019612;28;20010;-59
2024/02/17 13:19:31;;;;;;;6.47;3.10;;;;;;;;;;5013566;28;20025;-58
2024/02/17 13:21:57;;;;;;;5.73;2.67;;;;;;;;;;5008047;28;20022;-58
2024/02/17 13:24:22;;;;;;;6.75;2.38;;;;;;;;;;4999965;28;20014;-57
2024/02/17 13:26:51;;;;;;;5.80;2.80;;;;;;;;;;5005085;28;20448;-58
2024/02/17 13:29:16;;;;;;;7.63;3.10;;;;;;;;;;5006416;28;20022;-59
2024/02/17 13:31:42;;;;;;;9.57;3.33;;;;;;;;;;5010995;28;20096;-59
2024/02/17 13:34:07;;;;;;;7.47;3.60;;;;;;;;;;5010175;28;20029;-58
2024/02/17 13:36:32;;;;;;;6.32;3.13;;;;;;;;;;5010329;28;20018;-59
2024/02/17 13:38:57;;;;;;;8.50;3.47;;;;;;;;;;5010953;28;20045;-58
2024/02/17 13:41:23;;;;;;;8.68;3.70;;;;;;;;;;5007427;28;20050;-57
2024/02/17 13:43:48;;;;;;;8.73;3.50;;;;;;;;;;5008311;28;20026;-58
2024/02/17 13:46:13;;;;;;;5.57;3.00;;;;;;;;;;5010893;28;20363;-59
2024/02/17 13:48:38;;;;;;;5.63;3.10;;;;;;;;;;5011171;28;20117;-57
2024/02/17 13:51:04;;;;;;;8.52;3.60;;;;;;;;;;5010349;28;20049;-58
2024/02/17 13:53:29;;;;;;;7.55;3.05;;;;;;;;;;4999321;28;20383;-58
2024/02/17 13:55:54;;;;;;;8.57;3.50;;;;;;;;;;5011143;28;20033;-58
2024/02/17 13:58:19;;;;;;;5.65;2.67;;;;;;;;;;5007911;28;20045;-58
2024/02/17 14:00:44;;;;;;;6.37;2.80;;;;;;;;;;5010317;28;20045;-58
2024/02/17 14:03:10;;;;;;;6.47;3.10;;;;;;;;;;4997083;28;20015;-59
2024/02/17 14:05:36;;;;;;;6.85;3.00;;;;;;;;;;5004239;28;20022;-59
2024/02/17 14:08:01;;;;;;;6.50;2.72;;;;;;;;;;5009538;28;20091;-58
2024/02/17 14:10:26;;;;;;;5.83;2.90;;;;;;;;;;5010014;28;20470;-58
2024/02/17 14:12:51;;;;;;;5.53;2.80;;;;;;;;;;5009862;28;20113;-58
2024/02/17 14:15:18;;;;;;;7.15;2.88;;;;;;;;;;5005795;28;20041;-58
2024/02/17 14:17:43;;;;;;;6.78;2.47;;;;;;;;;;5009179;28;20056;-57
2024/02/17 14:20:09;;;;;;;6.80;2.90;;;;;;;;;;5009048;28;20026;-60